FTI YMBA-YMBA

Flight info

Callsign FTI
Flight time 0h 4m
Altitude 1500
Route CCTS
Aircraft C152/L-SFG/C

Departure

Time 2026-04-16 09:32
Airport Mareeba Airport (YMBA)

Arrival

Time 2026-04-16 09:36
Airport Mareeba Airport (YMBA)
Time Latitude Longitude Altitude Speed Heading
2026-04-16 09:27 -17.07044 145.43273 1568 ft 0 kts 12°
2026-04-16 09:29 -17.07054 145.43292 1567 ft 13 kts 65°
2026-04-16 09:29 -17.07099 145.43266 1568 ft 17 kts 202°
2026-04-16 09:30 -17.07099 145.43154 1568 ft 27 kts 286°
2026-04-16 09:30 -17.07126 145.42995 1564 ft 20 kts 297°
2026-04-16 09:30 -17.07047 145.42754 1559 ft 56 kts 288°
2026-04-16 09:30 -17.06974 145.42440 1552 ft 35 kts 269°
2026-04-16 09:31 -17.07014 145.42399 1550 ft 3 kts 116°
2026-04-16 09:31 -17.07135 145.42750 1592 ft 65 kts 108°
2026-04-16 09:31 -17.07231 145.43053 1710 ft 69 kts 104°
2026-04-16 09:31 -17.07426 145.43482 1988 ft 63 kts 126°
2026-04-16 09:32 -17.07532 145.43961 2312 ft 62 kts 44°
2026-04-16 09:32 -17.07113 145.44160 2452 ft 72 kts 30°
2026-04-16 09:32 -17.06790 145.44276 2634 ft 76 kts 11°
2026-04-16 09:32 -17.06355 145.43920 2913 ft 90 kts 301°
2026-04-16 09:33 -17.06158 145.43263 3011 ft 106 kts 290°
2026-04-16 09:33 -17.05883 145.42546 3020 ft 109 kts 293°
2026-04-16 09:33 -17.05615 145.41793 2996 ft 113 kts 294°
2026-04-16 09:33 -17.05308 145.41059 2980 ft 104 kts 297°
2026-04-16 09:34 -17.05025 145.40339 2811 ft 108 kts 294°
2026-04-16 09:34 -17.04860 145.39635 2802 ft 91 kts 249°
2026-04-16 09:34 -17.05347 145.39310 2638 ft 91 kts 189°
2026-04-16 09:34 -17.05905 145.39311 2497 ft 75 kts 128°
2026-04-16 09:35 -17.06104 145.39782 2311 ft 71 kts 109°
2026-04-16 09:35 -17.06284 145.40261 2172 ft 70 kts 109°
2026-04-16 09:35 -17.06445 145.40753 2008 ft 69 kts 110°
2026-04-16 09:35 -17.06604 145.41199 1817 ft 59 kts 108°
2026-04-16 09:36 -17.06749 145.41625 1595 ft 65 kts 108°
2026-04-16 09:36 -17.06878 145.42003 1541 ft 41 kts 108°
2026-04-16 09:36 -17.06992 145.42335 1643 ft 55 kts 107°
2026-04-16 09:36 -17.07147 145.42737 1861 ft 57 kts 109°
2026-04-16 09:37 -17.07265 145.43102 2074 ft 60 kts 99°
2026-04-16 09:37 -17.07060 145.43428 2327 ft 55 kts 32°
2026-04-16 09:37 -17.06709 145.43571 2480 ft 61 kts 19°
2026-04-16 09:37 -17.06452 145.43156 2422 ft 84 kts 271°
2026-04-16 09:38 -17.06458 145.42544 2174 ft 84 kts 269°
2026-04-16 09:38 -17.06605 145.41975 1857 ft 76 kts 216°
2026-04-16 09:38 -17.06909 145.42099 1552 ft 56 kts 103°
2026-04-16 09:38 -17.07005 145.42369 1549 ft 33 kts 111°
2026-04-16 09:39 -17.07039 145.42695 1606 ft 50 kts 38°
2026-04-16 09:39 -17.06685 145.42817 1744 ft 62 kts 356°
2026-04-16 09:39 -17.06563 145.42388 1880 ft 75 kts 246°
2026-04-16 09:39 -17.06912 145.42142 1601 ft 51 kts 96°
2026-04-16 09:40 -17.07021 145.42423 1550 ft 39 kts 114°
2026-04-16 09:40 -17.07127 145.42764 1755 ft 33 kts 74°
2026-04-16 09:40 -17.06888 145.42885 1814 ft 51 kts 341°
2026-04-16 09:40 -17.06634 145.42512 1886 ft 65 kts 296°
2026-04-16 09:41 -17.06634 145.42042 1743 ft 67 kts 222°
2026-04-16 09:41 -17.06908 145.42107 1554 ft 41 kts 108°
2026-04-16 09:41 -17.06999 145.42353 1549 ft 51 kts 108°
2026-04-16 09:41 -17.07141 145.42760 1700 ft 66 kts 108°
2026-04-16 09:42 -17.07275 145.43231 1900 ft 69 kts 106°
2026-04-16 09:42 -17.07365 145.43711 2164 ft 67 kts 79°
2026-04-16 09:42 -17.07023 145.44024 2339 ft 74 kts 32°
2026-04-16 09:42 -17.06548 145.44257 2512 ft 83 kts 28°
2026-04-16 09:43 -17.05988 145.44101 2584 ft 101 kts 307°
2026-04-16 09:43 -17.05838 145.43353 2629 ft 108 kts 279°
2026-04-16 09:43 -17.05706 145.42591 2674 ft 109 kts 278°
2026-04-16 09:43 -17.05579 145.41846 2669 ft 98 kts 282°
2026-04-16 09:44 -17.05380 145.41170 2652 ft 95 kts 286°
2026-04-16 09:44 -17.05223 145.40535 2540 ft 90 kts 259°
2026-04-16 09:44 -17.05619 145.40081 2388 ft 82 kts 204°
2026-04-16 09:44 -17.06138 145.39941 2228 ft 81 kts 153°
2026-04-16 09:45 -17.06360 145.40461 2029 ft 76 kts 103°
2026-04-16 09:45 -17.06508 145.40935 1872 ft 66 kts 107°
2026-04-16 09:45 -17.06667 145.41372 1710 ft 63 kts 108°
2026-04-16 09:45 -17.06814 145.41816 1550 ft 59 kts 107°
2026-04-16 09:46 -17.06920 145.42122 1543 ft 45 kts 108°
2026-04-16 09:46 -17.07058 145.42531 1677 ft 65 kts 108°
2026-04-16 09:46 -17.07216 145.42994 1894 ft 68 kts 101°
2026-04-16 09:46 -17.06926 145.43304 2059 ft 73 kts 336°
2026-04-16 09:47 -17.07079 145.42843 1678 ft 86 kts 239°
2026-04-16 09:47 -17.06982 145.42297 1555 ft 64 kts 292°
2026-04-16 09:47 -17.06857 145.41946 1541 ft 42 kts 292°
2026-04-16 09:47 -17.06810 145.41823 1527 ft 7 kts 134°
2026-04-16 09:48 -17.06888 145.42013 1551 ft 51 kts 107°
2026-04-16 09:48 -17.06990 145.42328 1548 ft 35 kts 108°
2026-04-16 09:48 -17.07058 145.42525 1553 ft 39 kts 109°
2026-04-16 09:48 -17.07202 145.42936 1571 ft 77 kts 109°
2026-04-16 09:49 -17.07182 145.43003 1567 ft 0 kts 119°
2026-04-16 09:49 -17.07182 145.43004 1567 ft 2 kts 116°
2026-04-16 09:49 -17.07206 145.42957 1563 ft 40 kts 291°
2026-04-16 09:49 -17.07050 145.42494 1554 ft 91 kts 290°
2026-04-16 09:50 -17.06800 145.41832 1642 ft 81 kts 341°
2026-04-16 09:50 -17.06368 145.41862 1880 ft 56 kts 354°
2026-04-16 09:50 -17.05998 145.41794 1718 ft 67 kts 348°
2026-04-16 09:50 -17.05706 145.41631 1484 ft 50 kts 244°
2026-04-16 09:51 -17.05701 145.41464 1483 ft 0 kts 14°